LICR/REG METAR and TAF weather

Enter ICAO airport designator
Station Type Date Time Source
LICR METAR 2019/12/08 06:50 UTC NOAA

LICR 080650Z 04007KT CAVOK 13/07 Q1022


Station Type Date Time Source
LICR Decoded METAR 2019/12/08 06:50 UTC NOAA

Reggio Calabria, Italy (LICR) 38-04N 015-39E 21M
Dec 08, 2019 - 01:50 AM EST / 2019.12.08 0650 UTC
Wind: from the NE (040 degrees) at 8 MPH (7 KT):0
Visibility: greater than 7 mile(s):0
Temperature: 55 F (13 C)
Dew Point: 44 F (7 C)
Relative Humidity: 66%
Pressure (altimeter): 30.18 in. Hg (1022 hPa)
ob: LICR 080650Z 04007KT CAVOK 13/07 Q1022
cycle: 7

Station Type Date Time Source
LICR TAF 2019/12/08 06:21 UTC NOAA

TAF LICR 080500Z 0806/0906 VRB05KT CAVOK
TEMPO 0900/0906 RA

Example: see airport list